sensor_id;sensor_type;location;lat;lon;timestamp;P1;durP1;ratioP1;P2;durP2;ratioP2
11865;SDS011;5992;52.744;6.898;2024-01-27T00:00:22;11.13;;;2.50;;
11865;SDS011;5992;52.744;6.898;2024-01-27T00:03:40;5.93;;;2.20;;
11865;SDS011;5992;52.744;6.898;2024-01-27T00:06:46;4.80;;;1.20;;
11865;SDS011;5992;52.744;6.898;2024-01-27T00:10:03;10.13;;;1.60;;
11865;SDS011;5992;52.744;6.898;2024-01-27T00:13:21;7.17;;;2.03;;
11865;SDS011;5992;52.744;6.898;2024-01-27T00:16:36;5.70;;;1.60;;
11865;SDS011;5992;52.744;6.898;2024-01-27T00:19:39;4.13;;;1.30;;
11865;SDS011;5992;52.744;6.898;2024-01-27T00:22:51;5.67;;;1.70;;
11865;SDS011;5992;52.744;6.898;2024-01-27T00:25:59;4.97;;;1.40;;
11865;SDS011;5992;52.744;6.898;2024-01-27T00:29:23;7.47;;;2.20;;
11865;SDS011;5992;52.744;6.898;2024-01-27T00:32:26;5.70;;;1.70;;
11865;SDS011;5992;52.744;6.898;2024-01-27T00:35:39;6.70;;;2.20;;
11865;SDS011;5992;52.744;6.898;2024-01-27T00:42:00;7.73;;;2.00;;
11865;SDS011;5992;52.744;6.898;2024-01-27T00:45:13;7.87;;;1.80;;
11865;SDS011;5992;52.744;6.898;2024-01-27T00:48:32;15.03;;;2.53;;
11865;SDS011;5992;52.744;6.898;2024-01-27T00:51:32;9.67;;;2.50;;
11865;SDS011;5992;52.744;6.898;2024-01-27T00:54:47;5.93;;;2.07;;
11865;SDS011;5992;52.744;6.898;2024-01-27T00:58:09;9.70;;;1.80;;
11865;SDS011;5992;52.744;6.898;2024-01-27T01:01:38;10.00;;;2.53;;
11865;SDS011;5992;52.744;6.898;2024-01-27T01:04:39;6.13;;;1.70;;
11865;SDS011;5992;52.744;6.898;2024-01-27T01:07:51;9.73;;;2.27;;
11865;SDS011;5992;52.744;6.898;2024-01-27T01:10:51;9.33;;;2.00;;
11865;SDS011;5992;52.744;6.898;2024-01-27T01:14:10;6.80;;;1.50;;
11865;SDS011;5992;52.744;6.898;2024-01-27T01:17:22;1.93;;;1.17;;
11865;SDS011;5992;52.744;6.898;2024-01-27T01:20:37;5.40;;;2.10;;
11865;SDS011;5992;52.744;6.898;2024-01-27T01:23:40;5.10;;;2.30;;
11865;SDS011;5992;52.744;6.898;2024-01-27T01:26:55;5.63;;;2.13;;
11865;SDS011;5992;52.744;6.898;2024-01-27T01:30:12;5.10;;;1.37;;
11865;SDS011;5992;52.744;6.898;2024-01-27T01:33:38;9.70;;;2.47;;
11865;SDS011;5992;52.744;6.898;2024-01-27T01:36:44;5.40;;;2.23;;
11865;SDS011;5992;52.744;6.898;2024-01-27T01:40:14;6.37;;;1.97;;
11865;SDS011;5992;52.744;6.898;2024-01-27T01:43:14;2.63;;;1.53;;
11865;SDS011;5992;52.744;6.898;2024-01-27T01:46:27;7.40;;;2.33;;
11865;SDS011;5992;52.744;6.898;2024-01-27T01:49:43;6.33;;;1.50;;
11865;SDS011;5992;52.744;6.898;2024-01-27T01:53:17;10.77;;;2.40;;
11865;SDS011;5992;52.744;6.898;2024-01-27T01:56:33;4.67;;;1.50;;
11865;SDS011;5992;52.744;6.898;2024-01-27T02:00:00;6.67;;;1.30;;
11865;SDS011;5992;52.744;6.898;2024-01-27T02:03:28;9.57;;;2.43;;
11865;SDS011;5992;52.744;6.898;2024-01-27T02:06:44;7.60;;;1.63;;
11865;SDS011;5992;52.744;6.898;2024-01-27T02:09:56;10.70;;;2.07;;
11865;SDS011;5992;52.744;6.898;2024-01-27T02:12:50;7.37;;;1.80;;
11865;SDS011;5992;52.744;6.898;2024-01-27T02:16:03;4.97;;;1.50;;
11865;SDS011;5992;52.744;6.898;2024-01-27T02:19:08;8.63;;;2.27;;
11865;SDS011;5992;52.744;6.898;2024-01-27T02:22:37;5.13;;;1.90;;
11865;SDS011;5992;52.744;6.898;2024-01-27T02:25:38;7.37;;;2.03;;
11865;SDS011;5992;52.744;6.898;2024-01-27T02:29:09;9.73;;;2.43;;
11865;SDS011;5992;52.744;6.898;2024-01-27T02:32:09;3.50;;;1.50;;
11865;SDS011;5992;52.744;6.898;2024-01-27T02:35:24;11.10;;;2.53;;
11865;SDS011;5992;52.744;6.898;2024-01-27T02:38:42;5.83;;;1.50;;
11865;SDS011;5992;52.744;6.898;2024-01-27T02:42:01;3.63;;;1.73;;
11865;SDS011;5992;52.744;6.898;2024-01-27T02:45:20;3.40;;;1.70;;
11865;SDS011;5992;52.744;6.898;2024-01-27T02:48:42;7.60;;;2.33;;
11865;SDS011;5992;52.744;6.898;2024-01-27T02:51:57;3.30;;;1.50;;
11865;SDS011;5992;52.744;6.898;2024-01-27T02:55:16;3.87;;;1.27;;
11865;SDS011;5992;52.744;6.898;2024-01-27T02:58:17;3.70;;;1.47;;
11865;SDS011;5992;52.744;6.898;2024-01-27T03:01:42;4.93;;;1.93;;
11865;SDS011;5992;52.744;6.898;2024-01-27T03:04:42;4.27;;;1.70;;
11865;SDS011;5992;52.744;6.898;2024-01-27T03:08:00;7.80;;;1.97;;
11865;SDS011;5992;52.744;6.898;2024-01-27T03:11:00;6.97;;;2.17;;
11865;SDS011;5992;52.744;6.898;2024-01-27T03:14:14;4.40;;;1.63;;
11865;SDS011;5992;52.744;6.898;2024-01-27T03:17:30;7.57;;;1.90;;
11865;SDS011;5992;52.744;6.898;2024-01-27T03:20:46;11.23;;;2.23;;
11865;SDS011;5992;52.744;6.898;2024-01-27T03:24:01;6.13;;;1.60;;
11865;SDS011;5992;52.744;6.898;2024-01-27T03:27:32;4.57;;;1.70;;
11865;SDS011;5992;52.744;6.898;2024-01-27T03:30:33;5.53;;;1.60;;
11865;SDS011;5992;52.744;6.898;2024-01-27T03:34:04;9.87;;;1.60;;
11865;SDS011;5992;52.744;6.898;2024-01-27T03:37:21;2.87;;;1.60;;
11865;SDS011;5992;52.744;6.898;2024-01-27T03:40:52;8.83;;;2.53;;
11865;SDS011;5992;52.744;6.898;2024-01-27T03:43:58;5.07;;;1.60;;
11865;SDS011;5992;52.744;6.898;2024-01-27T03:47:13;5.63;;;2.33;;
11865;SDS011;5992;52.744;6.898;2024-01-27T03:50:25;8.27;;;2.13;;
11865;SDS011;5992;52.744;6.898;2024-01-27T03:53:40;4.43;;;1.70;;
11865;SDS011;5992;52.744;6.898;2024-01-27T03:56:52;6.47;;;2.17;;
11865;SDS011;5992;52.744;6.898;2024-01-27T04:00:06;5.53;;;1.97;;
11865;SDS011;5992;52.744;6.898;2024-01-27T04:03:24;3.93;;;2.17;;
11865;SDS011;5992;52.744;6.898;2024-01-27T04:06:39;3.23;;;1.60;;
11865;SDS011;5992;52.744;6.898;2024-01-27T04:10:10;3.97;;;1.90;;
11865;SDS011;5992;52.744;6.898;2024-01-27T04:13:10;2.63;;;1.60;;
11865;SDS011;5992;52.744;6.898;2024-01-27T04:16:25;5.37;;;1.70;;
11865;SDS011;5992;52.744;6.898;2024-01-27T04:19:30;4.90;;;2.00;;
11865;SDS011;5992;52.744;6.898;2024-01-27T04:23:01;6.53;;;1.93;;
11865;SDS011;5992;52.744;6.898;2024-01-27T04:26:16;8.95;;;2.30;;
11865;SDS011;5992;52.744;6.898;2024-01-27T04:29:35;4.10;;;1.67;;
11865;SDS011;5992;52.744;6.898;2024-01-27T04:32:47;3.67;;;1.73;;
11865;SDS011;5992;52.744;6.898;2024-01-27T04:36:06;7.63;;;2.07;;
11865;SDS011;5992;52.744;6.898;2024-01-27T04:39:18;6.60;;;1.87;;
11865;SDS011;5992;52.744;6.898;2024-01-27T04:42:34;5.37;;;1.83;;
11865;SDS011;5992;52.744;6.898;2024-01-27T04:45:49;9.13;;;2.07;;
11865;SDS011;5992;52.744;6.898;2024-01-27T04:49:01;11.73;;;3.13;;
11865;SDS011;5992;52.744;6.898;2024-01-27T04:52:06;8.43;;;2.40;;
11865;SDS011;5992;52.744;6.898;2024-01-27T04:55:33;7.33;;;1.70;;
11865;SDS011;5992;52.744;6.898;2024-01-27T04:58:33;3.30;;;1.57;;
11865;SDS011;5992;52.744;6.898;2024-01-27T05:01:51;2.67;;;1.83;;
11865;SDS011;5992;52.744;6.898;2024-01-27T05:04:54;12.00;;;2.30;;
11865;SDS011;5992;52.744;6.898;2024-01-27T05:08:11;7.23;;;1.97;;
11865;SDS011;5992;52.744;6.898;2024-01-27T05:11:29;3.83;;;1.63;;
11865;SDS011;5992;52.744;6.898;2024-01-27T05:14:52;15.33;;;3.10;;
11865;SDS011;5992;52.744;6.898;2024-01-27T05:17:52;3.83;;;1.97;;
11865;SDS011;5992;52.744;6.898;2024-01-27T05:21:11;4.97;;;1.80;;
11865;SDS011;5992;52.744;6.898;2024-01-27T05:24:13;2.23;;;1.50;;
11865;SDS011;5992;52.744;6.898;2024-01-27T05:27:40;6.90;;;2.25;;
11865;SDS011;5992;52.744;6.898;2024-01-27T05:30:40;5.73;;;1.90;;
11865;SDS011;5992;52.744;6.898;2024-01-27T05:33:55;9.43;;;2.53;;
11865;SDS011;5992;52.744;6.898;2024-01-27T05:36:55;9.20;;;2.17;;
11865;SDS011;5992;52.744;6.898;2024-01-27T05:40:09;2.73;;;2.17;;
11865;SDS011;5992;52.744;6.898;2024-01-27T05:43:24;6.55;;;2.20;;
11865;SDS011;5992;52.744;6.898;2024-01-27T05:46:45;7.40;;;2.13;;
11865;SDS011;5992;52.744;6.898;2024-01-27T05:50:00;4.47;;;2.10;;
11865;SDS011;5992;52.744;6.898;2024-01-27T05:53:16;3.40;;;2.40;;
11865;SDS011;5992;52.744;6.898;2024-01-27T05:56:18;6.20;;;2.23;;
11865;SDS011;5992;52.744;6.898;2024-01-27T05:59:42;7.67;;;2.00;;
11865;SDS011;5992;52.744;6.898;2024-01-27T06:02:57;6.03;;;2.20;;
11865;SDS011;5992;52.744;6.898;2024-01-27T06:05:57;5.53;;;1.80;;
11865;SDS011;5992;52.744;6.898;2024-01-27T06:09:11;5.03;;;2.13;;
11865;SDS011;5992;52.744;6.898;2024-01-27T06:12:12;9.30;;;2.33;;
11865;SDS011;5992;52.744;6.898;2024-01-27T06:15:40;7.57;;;2.43;;
11865;SDS011;5992;52.744;6.898;2024-01-27T06:18:43;3.20;;;2.00;;
11865;SDS011;5992;52.744;6.898;2024-01-27T06:22:01;6.20;;;2.40;;
11865;SDS011;5992;52.744;6.898;2024-01-27T06:25:01;5.65;;;2.20;;
11865;SDS011;5992;52.744;6.898;2024-01-27T06:28:14;5.03;;;2.03;;
11865;SDS011;5992;52.744;6.898;2024-01-27T06:31:27;9.10;;;2.30;;
11865;SDS011;5992;52.744;6.898;2024-01-27T06:34:42;9.33;;;2.30;;
11865;SDS011;5992;52.744;6.898;2024-01-27T06:37:42;4.67;;;1.93;;
11865;SDS011;5992;52.744;6.898;2024-01-27T06:40:57;3.90;;;2.17;;
11865;SDS011;5992;52.744;6.898;2024-01-27T06:44:10;7.33;;;2.87;;
11865;SDS011;5992;52.744;6.898;2024-01-27T06:47:39;3.70;;;2.20;;
11865;SDS011;5992;52.744;6.898;2024-01-27T06:50:39;5.60;;;2.43;;
11865;SDS011;5992;52.744;6.898;2024-01-27T06:53:54;7.03;;;2.20;;
11865;SDS011;5992;52.744;6.898;2024-01-27T06:56:54;8.83;;;2.20;;
11865;SDS011;5992;52.744;6.898;2024-01-27T07:00:11;6.70;;;2.40;;
11865;SDS011;5992;52.744;6.898;2024-01-27T07:03:23;3.17;;;2.00;;
11865;SDS011;5992;52.744;6.898;2024-01-27T07:06:35;7.40;;;2.80;;
11865;SDS011;5992;52.744;6.898;2024-01-27T07:09:38;6.37;;;3.07;;
11865;SDS011;5992;52.744;6.898;2024-01-27T07:12:50;8.67;;;2.70;;
11865;SDS011;5992;52.744;6.898;2024-01-27T07:15:54;3.87;;;1.73;;
11865;SDS011;5992;52.744;6.898;2024-01-27T07:19:19;3.80;;;2.07;;
11865;SDS011;5992;52.744;6.898;2024-01-27T07:22:28;8.40;;;2.23;;
11865;SDS011;5992;52.744;6.898;2024-01-27T07:25:40;13.65;;;3.55;;
11865;SDS011;5992;52.744;6.898;2024-01-27T07:28:40;5.70;;;2.57;;
11865;SDS011;5992;52.744;6.898;2024-01-27T07:31:56;8.43;;;3.53;;
11865;SDS011;5992;52.744;6.898;2024-01-27T07:35:09;11.63;;;3.20;;
11865;SDS011;5992;52.744;6.898;2024-01-27T07:38:21;16.17;;;4.07;;
11865;SDS011;5992;52.744;6.898;2024-01-27T07:41:21;4.83;;;3.00;;
11865;SDS011;5992;52.744;6.898;2024-01-27T07:44:34;9.07;;;3.30;;
11865;SDS011;5992;52.744;6.898;2024-01-27T07:47:38;5.65;;;2.35;;
11865;SDS011;5992;52.744;6.898;2024-01-27T07:51:03;4.50;;;2.30;;
11865;SDS011;5992;52.744;6.898;2024-01-27T07:54:07;5.60;;;2.37;;
11865;SDS011;5992;52.744;6.898;2024-01-27T07:57:27;13.23;;;4.00;;
11865;SDS011;5992;52.744;6.898;2024-01-27T08:00:38;8.93;;;2.60;;
11865;SDS011;5992;52.744;6.898;2024-01-27T08:03:55;5.40;;;2.60;;
11865;SDS011;5992;52.744;6.898;2024-01-27T08:07:11;4.83;;;2.73;;
11865;SDS011;5992;52.744;6.898;2024-01-27T08:10:42;6.07;;;3.03;;
11865;SDS011;5992;52.744;6.898;2024-01-27T08:13:46;6.35;;;2.40;;
11865;SDS011;5992;52.744;6.898;2024-01-27T08:16:58;2.30;;;2.10;;
11865;SDS011;5992;52.744;6.898;2024-01-27T08:20:03;7.63;;;3.33;;
11865;SDS011;5992;52.744;6.898;2024-01-27T08:23:31;7.43;;;3.33;;
11865;SDS011;5992;52.744;6.898;2024-01-27T08:26:31;9.07;;;3.70;;
11865;SDS011;5992;52.744;6.898;2024-01-27T08:29:43;10.33;;;3.70;;
11865;SDS011;5992;52.744;6.898;2024-01-27T08:32:43;7.20;;;3.10;;
11865;SDS011;5992;52.744;6.898;2024-01-27T08:36:00;6.43;;;2.87;;
11865;SDS011;5992;52.744;6.898;2024-01-27T08:39:16;8.63;;;3.83;;
11865;SDS011;5992;52.744;6.898;2024-01-27T08:42:28;6.20;;;3.40;;
11865;SDS011;5992;52.744;6.898;2024-01-27T08:45:28;7.27;;;2.87;;
11865;SDS011;5992;52.744;6.898;2024-01-27T08:48:41;10.95;;;3.60;;
11865;SDS011;5992;52.744;6.898;2024-01-27T08:51:52;12.93;;;3.93;;
11865;SDS011;5992;52.744;6.898;2024-01-27T08:55:17;9.80;;;3.97;;
11865;SDS011;5992;52.744;6.898;2024-01-27T08:58:17;7.57;;;4.40;;
11865;SDS011;5992;52.744;6.898;2024-01-27T09:01:30;11.47;;;4.70;;
11865;SDS011;5992;52.744;6.898;2024-01-27T09:04:33;4.43;;;2.67;;
11865;SDS011;5992;52.744;6.898;2024-01-27T09:07:49;12.80;;;4.80;;
11865;SDS011;5992;52.744;6.898;2024-01-27T09:11:08;11.20;;;4.57;;
11865;SDS011;5992;52.744;6.898;2024-01-27T09:14:23;9.10;;;3.87;;
11865;SDS011;5992;52.744;6.898;2024-01-27T09:17:26;6.87;;;3.37;;
11865;SDS011;5992;52.744;6.898;2024-01-27T09:20:38;5.07;;;3.63;;
11865;SDS011;5992;52.744;6.898;2024-01-27T09:23:43;7.87;;;4.07;;
11865;SDS011;5992;52.744;6.898;2024-01-27T09:27:10;9.03;;;4.63;;
11865;SDS011;5992;52.744;6.898;2024-01-27T09:30:10;10.20;;;4.40;;
11865;SDS011;5992;52.744;6.898;2024-01-27T09:33:24;6.33;;;3.40;;
11865;SDS011;5992;52.744;6.898;2024-01-27T09:36:24;10.37;;;4.27;;
11865;SDS011;5992;52.744;6.898;2024-01-27T09:39:33;9.77;;;3.73;;
11865;SDS011;5992;52.744;6.898;2024-01-27T09:42:58;15.83;;;4.63;;
11865;SDS011;5992;52.744;6.898;2024-01-27T09:46:14;6.93;;;4.00;;
11865;SDS011;5992;52.744;6.898;2024-01-27T09:49:40;12.60;;;4.57;;
11865;SDS011;5992;52.744;6.898;2024-01-27T09:52:55;9.90;;;3.93;;
11865;SDS011;5992;52.744;6.898;2024-01-27T09:56:09;8.60;;;4.50;;
11865;SDS011;5992;52.744;6.898;2024-01-27T09:59:23;12.20;;;4.47;;
11865;SDS011;5992;52.744;6.898;2024-01-27T10:02:47;20.40;;;5.63;;
11865;SDS011;5992;52.744;6.898;2024-01-27T10:06:14;6.17;;;4.23;;
11865;SDS011;5992;52.744;6.898;2024-01-27T10:09:17;8.40;;;4.53;;
11865;SDS011;5992;52.744;6.898;2024-01-27T10:12:49;9.23;;;4.30;;
11865;SDS011;5992;52.744;6.898;2024-01-27T10:16:02;14.27;;;5.60;;
11865;SDS011;5992;52.744;6.898;2024-01-27T10:19:35;10.10;;;5.13;;
11865;SDS011;5992;52.744;6.898;2024-01-27T10:22:38;10.90;;;4.57;;
11865;SDS011;5992;52.744;6.898;2024-01-27T10:26:08;6.10;;;3.53;;
11865;SDS011;5992;52.744;6.898;2024-01-27T10:29:22;12.10;;;4.33;;
11865;SDS011;5992;52.744;6.898;2024-01-27T10:32:56;7.03;;;3.73;;
11865;SDS011;5992;52.744;6.898;2024-01-27T10:36:12;9.57;;;4.30;;
11865;SDS011;5992;52.744;6.898;2024-01-27T10:39:39;11.60;;;4.47;;
11865;SDS011;5992;52.744;6.898;2024-01-27T10:42:39;8.83;;;4.70;;
11865;SDS011;5992;52.744;6.898;2024-01-27T10:46:12;10.73;;;4.30;;
11865;SDS011;5992;52.744;6.898;2024-01-27T10:49:24;9.90;;;4.77;;
11865;SDS011;5992;52.744;6.898;2024-01-27T10:52:48;5.80;;;4.07;;
11865;SDS011;5992;52.744;6.898;2024-01-27T10:56:05;5.50;;;3.40;;
11865;SDS011;5992;52.744;6.898;2024-01-27T10:59:28;11.50;;;3.90;;
11865;SDS011;5992;52.744;6.898;2024-01-27T11:02:42;11.50;;;4.43;;
11865;SDS011;5992;52.744;6.898;2024-01-27T11:06:09;11.30;;;4.60;;
11865;SDS011;5992;52.744;6.898;2024-01-27T11:09:27;13.70;;;4.17;;
11865;SDS011;5992;52.744;6.898;2024-01-27T11:12:54;12.23;;;4.30;;
11865;SDS011;5992;52.744;6.898;2024-01-27T11:16:07;9.40;;;4.73;;
11865;SDS011;5992;52.744;6.898;2024-01-27T11:19:40;12.47;;;4.30;;
11865;SDS011;5992;52.744;6.898;2024-01-27T11:22:52;10.07;;;4.37;;
11865;SDS011;5992;52.744;6.898;2024-01-27T11:26:09;12.37;;;4.93;;
11865;SDS011;5992;52.744;6.898;2024-01-27T11:29:24;12.40;;;4.77;;
11865;SDS011;5992;52.744;6.898;2024-01-27T11:32:35;10.50;;;4.63;;
11865;SDS011;5992;52.744;6.898;2024-01-27T11:35:59;6.03;;;4.07;;
11865;SDS011;5992;52.744;6.898;2024-01-27T11:39:23;8.83;;;5.17;;
11865;SDS011;5992;52.744;6.898;2024-01-27T11:42:42;10.30;;;4.17;;
11865;SDS011;5992;52.744;6.898;2024-01-27T11:46:06;15.13;;;4.60;;
11865;SDS011;5992;52.744;6.898;2024-01-27T11:49:21;15.93;;;4.37;;
11865;SDS011;5992;52.744;6.898;2024-01-27T11:52:53;15.17;;;4.73;;
11865;SDS011;5992;52.744;6.898;2024-01-27T11:56:08;12.90;;;4.40;;
11865;SDS011;5992;52.744;6.898;2024-01-27T11:59:34;8.53;;;4.43;;
11865;SDS011;5992;52.744;6.898;2024-01-27T12:03:04;17.03;;;4.40;;
11865;SDS011;5992;52.744;6.898;2024-01-27T12:06:05;9.13;;;3.87;;
11865;SDS011;5992;52.744;6.898;2024-01-27T12:09:18;8.20;;;3.47;;
11865;SDS011;5992;52.744;6.898;2024-01-27T12:12:34;6.97;;;3.20;;
11865;SDS011;5992;52.744;6.898;2024-01-27T12:15:54;18.03;;;3.90;;
11865;SDS011;5992;52.744;6.898;2024-01-27T12:19:12;9.90;;;3.60;;
11865;SDS011;5992;52.744;6.898;2024-01-27T12:22:24;10.43;;;4.00;;
11865;SDS011;5992;52.744;6.898;2024-01-27T12:25:40;8.60;;;3.70;;
11865;SDS011;5992;52.744;6.898;2024-01-27T12:29:09;14.77;;;3.93;;
11865;SDS011;5992;52.744;6.898;2024-01-27T12:32:21;11.23;;;3.53;;
11865;SDS011;5992;52.744;6.898;2024-01-27T12:35:33;10.70;;;4.23;;
11865;SDS011;5992;52.744;6.898;2024-01-27T12:38:54;14.07;;;3.87;;
11865;SDS011;5992;52.744;6.898;2024-01-27T12:42:23;15.73;;;3.73;;
11865;SDS011;5992;52.744;6.898;2024-01-27T12:45:35;10.37;;;3.20;;
11865;SDS011;5992;52.744;6.898;2024-01-27T12:48:53;8.27;;;3.63;;
11865;SDS011;5992;52.744;6.898;2024-01-27T12:51:56;13.50;;;4.13;;
11865;SDS011;5992;52.744;6.898;2024-01-27T12:55:23;16.90;;;3.70;;
11865;SDS011;5992;52.744;6.898;2024-01-27T12:58:24;9.95;;;3.45;;
11865;SDS011;5992;52.744;6.898;2024-01-27T13:01:55;8.60;;;3.00;;
11865;SDS011;5992;52.744;6.898;2024-01-27T13:05:10;11.73;;;3.83;;
11865;SDS011;5992;52.744;6.898;2024-01-27T13:08:22;8.30;;;3.27;;
11865;SDS011;5992;52.744;6.898;2024-01-27T13:11:34;9.70;;;3.33;;
11865;SDS011;5992;52.744;6.898;2024-01-27T13:14:51;8.40;;;2.93;;
11865;SDS011;5992;52.744;6.898;2024-01-27T13:18:10;12.00;;;3.53;;
11865;SDS011;5992;52.744;6.898;2024-01-27T13:21:24;15.20;;;4.05;;
11865;SDS011;5992;52.744;6.898;2024-01-27T13:24:24;8.20;;;3.03;;
11865;SDS011;5992;52.744;6.898;2024-01-27T13:27:38;9.00;;;3.33;;
11865;SDS011;5992;52.744;6.898;2024-01-27T13:30:40;7.63;;;3.07;;
11865;SDS011;5992;52.744;6.898;2024-01-27T13:34:11;13.13;;;3.27;;
11865;SDS011;5992;52.744;6.898;2024-01-27T13:37:11;10.73;;;3.05;;
11865;SDS011;5992;52.744;6.898;2024-01-27T13:40:23;10.90;;;2.90;;
11865;SDS011;5992;52.744;6.898;2024-01-27T13:43:26;10.70;;;2.93;;
11865;SDS011;5992;52.744;6.898;2024-01-27T13:46:40;8.43;;;2.80;;
11865;SDS011;5992;52.744;6.898;2024-01-27T13:49:52;10.50;;;2.57;;
11865;SDS011;5992;52.744;6.898;2024-01-27T13:53:23;10.80;;;3.40;;
11865;SDS011;5992;52.744;6.898;2024-01-27T13:56:26;11.07;;;2.93;;
11865;SDS011;5992;52.744;6.898;2024-01-27T13:59:56;9.10;;;2.30;;
11865;SDS011;5992;52.744;6.898;2024-01-27T14:03:09;10.90;;;2.50;;
11865;SDS011;5992;52.744;6.898;2024-01-27T14:06:22;7.77;;;2.63;;
11865;SDS011;5992;52.744;6.898;2024-01-27T14:09:37;8.10;;;2.43;;
11865;SDS011;5992;52.744;6.898;2024-01-27T14:12:37;10.53;;;2.40;;
11865;SDS011;5992;52.744;6.898;2024-01-27T14:15:55;11.73;;;2.57;;
11865;SDS011;5992;52.744;6.898;2024-01-27T14:18:56;9.20;;;2.35;;
11865;SDS011;5992;52.744;6.898;2024-01-27T14:23:05;13.30;;;3.43;;
11865;SDS011;5992;52.744;6.898;2024-01-27T14:25:39;3.57;;;2.00;;
11865;SDS011;5992;52.744;6.898;2024-01-27T14:28:54;4.87;;;1.90;;
11865;SDS011;5992;52.744;6.898;2024-01-27T14:32:06;4.93;;;2.03;;
11865;SDS011;5992;52.744;6.898;2024-01-27T14:35:23;8.07;;;2.53;;
11865;SDS011;5992;52.744;6.898;2024-01-27T14:38:39;12.80;;;2.20;;
11865;SDS011;5992;52.744;6.898;2024-01-27T14:42:10;8.90;;;2.63;;
11865;SDS011;5992;52.744;6.898;2024-01-27T14:45:10;8.83;;;3.20;;
11865;SDS011;5992;52.744;6.898;2024-01-27T14:48:25;10.43;;;2.40;;
11865;SDS011;5992;52.744;6.898;2024-01-27T14:51:42;5.13;;;2.33;;
11865;SDS011;5992;52.744;6.898;2024-01-27T14:55:07;9.67;;;2.50;;
11865;SDS011;5992;52.744;6.898;2024-01-27T14:58:10;4.50;;;1.80;;
11865;SDS011;5992;52.744;6.898;2024-01-27T15:01:22;7.97;;;2.60;;
11865;SDS011;5992;52.744;6.898;2024-01-27T15:04:39;11.13;;;2.40;;
11865;SDS011;5992;52.744;6.898;2024-01-27T15:07:53;9.33;;;2.40;;
11865;SDS011;5992;52.744;6.898;2024-01-27T15:11:08;12.87;;;3.03;;
11865;SDS011;5992;52.744;6.898;2024-01-27T15:14:23;7.97;;;2.40;;
11865;SDS011;5992;52.744;6.898;2024-01-27T15:17:26;8.00;;;2.53;;
11865;SDS011;5992;52.744;6.898;2024-01-27T15:20:38;9.27;;;2.70;;
11865;SDS011;5992;52.744;6.898;2024-01-27T15:23:40;7.77;;;2.67;;
11865;SDS011;5992;52.744;6.898;2024-01-27T15:27:03;7.77;;;2.57;;
11865;SDS011;5992;52.744;6.898;2024-01-27T15:30:15;8.37;;;2.47;;
11865;SDS011;5992;52.744;6.898;2024-01-27T15:33:28;4.83;;;1.90;;
11865;SDS011;5992;52.744;6.898;2024-01-27T15:36:31;8.85;;;3.05;;
11865;SDS011;5992;52.744;6.898;2024-01-27T15:40:03;11.73;;;2.60;;
11865;SDS011;5992;52.744;6.898;2024-01-27T15:46:35;5.43;;;2.57;;
11865;SDS011;5992;52.744;6.898;2024-01-27T15:49:41;6.33;;;2.60;;
11865;SDS011;5992;52.744;6.898;2024-01-27T15:52:53;5.10;;;2.50;;
11865;SDS011;5992;52.744;6.898;2024-01-27T15:55:55;3.07;;;1.70;;
11865;SDS011;5992;52.744;6.898;2024-01-27T15:59:22;4.40;;;2.07;;
11865;SDS011;5992;52.744;6.898;2024-01-27T16:02:22;8.33;;;3.10;;
11865;SDS011;5992;52.744;6.898;2024-01-27T16:05:38;7.87;;;2.80;;
11865;SDS011;5992;52.744;6.898;2024-01-27T16:08:50;7.50;;;2.27;;
11865;SDS011;5992;52.744;6.898;2024-01-27T16:12:10;3.90;;;2.13;;
11865;SDS011;5992;52.744;6.898;2024-01-27T16:15:22;5.87;;;2.00;;
11865;SDS011;5992;52.744;6.898;2024-01-27T16:18:38;3.63;;;2.93;;
11865;SDS011;5992;52.744;6.898;2024-01-27T16:21:41;7.40;;;2.73;;
11865;SDS011;5992;52.744;6.898;2024-01-27T16:24:53;2.97;;;1.73;;
11865;SDS011;5992;52.744;6.898;2024-01-27T16:27:58;4.53;;;1.97;;
11865;SDS011;5992;52.744;6.898;2024-01-27T16:31:22;4.43;;;2.57;;
11865;SDS011;5992;52.744;6.898;2024-01-27T16:34:34;7.97;;;2.50;;
11865;SDS011;5992;52.744;6.898;2024-01-27T16:37:47;18.37;;;3.60;;
11865;SDS011;5992;52.744;6.898;2024-01-27T16:41:03;4.60;;;1.97;;
11865;SDS011;5992;52.744;6.898;2024-01-27T16:44:17;6.33;;;2.17;;
11865;SDS011;5992;52.744;6.898;2024-01-27T16:47:32;4.20;;;2.27;;
11865;SDS011;5992;52.744;6.898;2024-01-27T16:50:45;7.27;;;2.17;;
11865;SDS011;5992;52.744;6.898;2024-01-27T16:53:45;7.43;;;2.50;;
11865;SDS011;5992;52.744;6.898;2024-01-27T16:57:01;6.03;;;2.83;;
11865;SDS011;5992;52.744;6.898;2024-01-27T17:00:17;18.43;;;3.33;;
11865;SDS011;5992;52.744;6.898;2024-01-27T17:03:46;5.50;;;3.10;;
11865;SDS011;5992;52.744;6.898;2024-01-27T17:07:01;10.30;;;3.15;;
11865;SDS011;5992;52.744;6.898;2024-01-27T17:10:13;2.43;;;1.60;;
11865;SDS011;5992;52.744;6.898;2024-01-27T17:13:14;4.00;;;2.07;;
11865;SDS011;5992;52.744;6.898;2024-01-27T17:16:28;2.40;;;2.00;;
11865;SDS011;5992;52.744;6.898;2024-01-27T17:19:44;12.33;;;2.80;;
11865;SDS011;5992;52.744;6.898;2024-01-27T17:22:59;3.03;;;1.80;;
11865;SDS011;5992;52.744;6.898;2024-01-27T17:25:59;5.20;;;1.90;;
11865;SDS011;5992;52.744;6.898;2024-01-27T17:29:13;4.70;;;3.00;;
11865;SDS011;5992;52.744;6.898;2024-01-27T17:32:14;2.07;;;1.57;;
11865;SDS011;5992;52.744;6.898;2024-01-27T17:35:46;1.97;;;1.77;;
11865;SDS011;5992;52.744;6.898;2024-01-27T17:38:46;4.40;;;1.93;;
11865;SDS011;5992;52.744;6.898;2024-01-27T17:42:10;3.63;;;1.50;;
11865;SDS011;5992;52.744;6.898;2024-01-27T17:45:10;2.27;;;1.83;;
11865;SDS011;5992;52.744;6.898;2024-01-27T17:48:23;6.23;;;2.93;;
11865;SDS011;5992;52.744;6.898;2024-01-27T17:51:36;2.57;;;1.80;;
11865;SDS011;5992;52.744;6.898;2024-01-27T17:54:52;2.67;;;1.83;;
11865;SDS011;5992;52.744;6.898;2024-01-27T17:57:52;2.67;;;2.00;;
11865;SDS011;5992;52.744;6.898;2024-01-27T18:01:16;3.20;;;2.20;;
11865;SDS011;5992;52.744;6.898;2024-01-27T18:04:30;5.27;;;1.87;;
11865;SDS011;5992;52.744;6.898;2024-01-27T18:07:43;2.63;;;2.03;;
11865;SDS011;5992;52.744;6.898;2024-01-27T18:10:55;5.37;;;2.70;;
11865;SDS011;5992;52.744;6.898;2024-01-27T18:13:55;2.27;;;2.07;;
11865;SDS011;5992;52.744;6.898;2024-01-27T18:17:13;3.40;;;1.90;;
11865;SDS011;5992;52.744;6.898;2024-01-27T18:20:15;3.83;;;2.07;;
11865;SDS011;5992;52.744;6.898;2024-01-27T18:23:40;3.97;;;2.07;;
11865;SDS011;5992;52.744;6.898;2024-01-27T18:26:40;4.70;;;1.97;;
11865;SDS011;5992;52.744;6.898;2024-01-27T18:29:56;3.53;;;1.73;;
11865;SDS011;5992;52.744;6.898;2024-01-27T18:32:56;2.97;;;2.23;;
11865;SDS011;5992;52.744;6.898;2024-01-27T18:36:21;2.20;;;2.00;;
11865;SDS011;5992;52.744;6.898;2024-01-27T18:39:37;2.53;;;2.33;;
11865;SDS011;5992;52.744;6.898;2024-01-27T18:42:52;3.53;;;2.17;;
11865;SDS011;5992;52.744;6.898;2024-01-27T18:45:55;4.47;;;2.73;;
11865;SDS011;5992;52.744;6.898;2024-01-27T18:49:09;2.57;;;2.27;;
11865;SDS011;5992;52.744;6.898;2024-01-27T18:52:25;6.77;;;3.50;;
11865;SDS011;5992;52.744;6.898;2024-01-27T18:55:50;9.73;;;3.63;;
11865;SDS011;5992;52.744;6.898;2024-01-27T18:58:53;3.20;;;2.17;;
11865;SDS011;5992;52.744;6.898;2024-01-27T19:02:11;2.07;;;1.97;;
11865;SDS011;5992;52.744;6.898;2024-01-27T19:05:13;6.10;;;3.57;;
11865;SDS011;5992;52.744;6.898;2024-01-27T19:08:26;9.80;;;3.60;;
11865;SDS011;5992;52.744;6.898;2024-01-27T19:11:42;10.63;;;3.40;;
11865;SDS011;5992;52.744;6.898;2024-01-27T19:14:56;3.53;;;2.30;;
11865;SDS011;5992;52.744;6.898;2024-01-27T19:17:56;4.30;;;2.77;;
11865;SDS011;5992;52.744;6.898;2024-01-27T19:21:08;4.13;;;3.07;;
11865;SDS011;5992;52.744;6.898;2024-01-27T19:24:09;4.50;;;2.70;;
11865;SDS011;5992;52.744;6.898;2024-01-27T19:27:38;4.10;;;2.30;;
11865;SDS011;5992;52.744;6.898;2024-01-27T19:30:41;5.30;;;2.93;;
11865;SDS011;5992;52.744;6.898;2024-01-27T19:33:56;5.90;;;2.97;;
11865;SDS011;5992;52.744;6.898;2024-01-27T19:36:59;6.73;;;2.77;;
11865;SDS011;5992;52.744;6.898;2024-01-27T19:40:16;6.37;;;2.87;;
11865;SDS011;5992;52.744;6.898;2024-01-27T19:43:50;4.53;;;2.50;;
11865;SDS011;5992;52.744;6.898;2024-01-27T19:47:06;4.17;;;2.83;;